Etusivu
METAR-TAF:

METAR-TAF

Lentoasemat :

Jekaterinburg, Venäjä

Koltsovon kansainvälinen lentoasema

Leveyspiiri: 56-50N, Pituuspiiri: 060-38E, korkeus merenpinnasta: 237 m

Tämänhetkinen sää

Tämä raportti tehtiin 33 minuuttia sitten, kello 01.00 UTC
Tuuli 2 kn eri suunnista
Lämpötila -10°C
Kosteus 92%
Ilmanpaine 1034 hPa
Näkyvyys 10 km tai enemmän
ei pilviä alle 1500 m:ssä eikä cumulonimbus-pilviä

METAR: USSS 180100Z VRB01MPS CAVOK M10/M11 Q1034 R26R/290036 NOSIG RMK QFE754/1006

Aika: 06:33 (01:33 UTC)

Sääennuste

Tämä raportti tehtiin 2 tuntia ja 41 minuuttia sitten, kello 22.52 UTC
Ennuste voimassa 18. päivästä klo 00 UTC - 18. päivään klo 24 UTC
Tuuli 8 kn lännestä
Näkyvyys: 3100 m
Hajanaisia pilviä 1100 ft:n korkeudessa
utua
Tulossa
18. päivästä klo 07 UTC - 18. päivään klo 09 UTC
Näkyvyys 10 km tai enemmän
Hajanaisia pilviä 1500 ft:n korkeudessa

TAF: USSS 172252Z 1800/1824 26004MPS 3100 BR SCT011 BECMG 1807/1809 9999 NSW SCT015

Säähavainnot ja -ennusteet yli 4000 lentoasemalta (METAR- ja TAF-raportit).

Käytössä olevat sääasemat on merkitty karttaan keltaisilla ja punaisilla pisteillä.

Aseta hiiri pisteen päälle nähdäksesi sääaseman nimen.

Klikkaa sitten nähdäksesi säähavainnot ja -ennusteet.

Kartan vaihtaminen: klikkaa mustalla rastilla varustettuja vihreitä pisteitä, niin voit zoomata sisään; viivalla varustettua vihreää pistettä, niin voit zoomata ulos tai vihreitä nuolia, niin pääset viereisille kartoille.


METAR-TAF: